Here is the Quick Look data you requested

The Data originates at the National Weather Service, and is made available here by the UAlbany Department of Atmospheric and Environmental Sciences

Surface Observations

KACK 231753Z 01014KT 10SM CLR 16/12 A2984 RMK AO2 SLP105 T01610117 10167 20139
 58018=
KAQW 231752Z AUTO 27004KT 10SM CLR 18/08 A2989 RMK AO2 SLP121 T01780083 10183
 20117 58018=
KBAF 231753Z VRB03KT 10SM CLR 19/10 A2988 RMK AO2 SLP119 T01940100 10206 20111
 58016=
KBED 231756Z 34009KT 10SM CLR 21/09 A2986 RMK AO2 SLP123 T02060089 10206 20122
 58018=
KBOS 231754Z 10007KT 10SM FEW160 OVC200 17/12 A2987 RMK AO2 SLP113 T01670117
 10200 20128 58015=
KBVY 231753Z 29008KT 10SM BKN200 21/10 A2985 RMK AO2 SLP104 T02110100 10211
 20133 58018=
KCEF 231758Z 35004KT 10SM FEW130 OVC200 19/08 A2987 RMK AO2A SLP121 T01910082
 10198 20111 57017=
KCQX 231752Z AUTO 04006KT 10SM CLR 16/12 A2986 RMK AO2 SLP113 T01610117 10167
 20139 58013=
KEWB 231753Z 36007KT 10SM CLR 21/09 A2985 RMK AO2 SLP106 T02060094 10206 20133
 58020=
KFIT 231752Z AUTO 29006KT 10SM CLR 21/08 A2988 RMK AO2 SLP116 T02060083 10211
 20144 58015=
KHYA 231756Z 02011KT 10SM CLR 15/12 A2984 RMK AO2 SLP105 T01500117 10156 20122
 58019=
KLWM 231754Z 30005KT 8SM CLR 20/09 A2988 RMK AO2 SLP118 T02000094 10211 20122
 58015=
KMQE 231756Z AUTO 32009KT 290V360 20/08 A2986 RMK AO1 SLP120 T02000078 10206
 20106 58017=
KMVY 231753Z 07011KT 10SM CLR 20/12 A2984 RMK AO2 SLP104 T02000117 10217 20156
 58018=
KORE 231752Z AUTO 26004KT 10SM CLR 18/08 A2988 RMK AO2 SLP120 T01780083 10189
 20111 58013 TSNO=
KORH 231754Z 31007KT 10SM CLR 19/06 A2988 RMK AO2 SLP119 T01890061 10194 20122
 58016=
KOWD 231753Z 33007KT 300V360 10SM CLR 21/09 A2986 RMK AO2 SLP110 T02110089
 10211 20128 58019=
KPSF 231754Z AUTO VRB06KT 10SM CLR 17/07 A2988 RMK AO2 SLP104 T01720067 10178
 20117 58016=
KPVC 231756Z AUTO 03007KT 10SM CLR 12/11 A2987 RMK AO2 SLP115 6//// T01220106
 10128 20117 56014=
KPYM 231752Z AUTO 02009KT 10SM CLR 17/11 A2986 RMK AO2 SLP112 T01720106 10189
 20128 58017 TSNO=
KTAN 231752Z AUTO 10SM CLR 22/07 A2985 RMK AO2 SLP108 T02170072 10222 20128
 58019=